sensor_id;sensor_type;location;lat;lon;timestamp;temperature;humidity
44517;DHT22;30223;17.182;-96.766;2023-10-19T00:02:00;24.60;58.80
44517;DHT22;30223;17.182;-96.766;2023-10-19T00:04:27;24.60;57.40
44517;DHT22;30223;17.182;-96.766;2023-10-19T00:07:02;24.60;57.70
44517;DHT22;30223;17.182;-96.766;2023-10-19T00:09:34;24.60;58.70
44517;DHT22;30223;17.182;-96.766;2023-10-19T00:12:05;24.60;58.80
44517;DHT22;30223;17.182;-96.766;2023-10-19T00:14:34;24.60;58.30
44517;DHT22;30223;17.182;-96.766;2023-10-19T00:17:01;24.60;58.00
44517;DHT22;30223;17.182;-96.766;2023-10-19T00:19:37;24.60;57.90
44517;DHT22;30223;17.182;-96.766;2023-10-19T00:22:23;24.60;57.70
44517;DHT22;30223;17.182;-96.766;2023-10-19T00:24:50;24.60;58.10
44517;DHT22;30223;17.182;-96.766;2023-10-19T00:27:17;24.60;58.50
44517;DHT22;30223;17.182;-96.766;2023-10-19T00:29:45;24.60;58.40
44517;DHT22;30223;17.182;-96.766;2023-10-19T00:32:16;24.60;58.70
44517;DHT22;30223;17.182;-96.766;2023-10-19T00:34:44;24.60;58.70
44517;DHT22;30223;17.182;-96.766;2023-10-19T00:37:18;24.60;58.70
44517;DHT22;30223;17.182;-96.766;2023-10-19T00:39:52;24.70;59.10
44517;DHT22;30223;17.182;-96.766;2023-10-19T00:42:22;24.60;59.20
44517;DHT22;30223;17.182;-96.766;2023-10-19T00:44:56;24.70;59.40
44517;DHT22;30223;17.182;-96.766;2023-10-19T00:47:30;24.70;59.70
44517;DHT22;30223;17.182;-96.766;2023-10-19T00:50:08;24.60;60.40
44517;DHT22;30223;17.182;-96.766;2023-10-19T00:52:43;24.60;60.10
44517;DHT22;30223;17.182;-96.766;2023-10-19T00:55:14;24.70;60.20
44517;DHT22;30223;17.182;-96.766;2023-10-19T00:57:41;24.70;59.60
44517;DHT22;30223;17.182;-96.766;2023-10-19T01:00:12;24.70;59.80
44517;DHT22;30223;17.182;-96.766;2023-10-19T01:02:48;24.60;59.90
44517;DHT22;30223;17.182;-96.766;2023-10-19T01:05:17;24.70;59.80
44517;DHT22;30223;17.182;-96.766;2023-10-19T01:07:48;24.60;59.80
44517;DHT22;30223;17.182;-96.766;2023-10-19T01:10:23;24.70;60.20
44517;DHT22;30223;17.182;-96.766;2023-10-19T01:12:51;24.60;60.10
44517;DHT22;30223;17.182;-96.766;2023-10-19T01:15:19;24.60;60.30
44517;DHT22;30223;17.182;-96.766;2023-10-19T01:17:57;24.60;60.90
44517;DHT22;30223;17.182;-96.766;2023-10-19T01:20:26;24.60;60.40
44517;DHT22;30223;17.182;-96.766;2023-10-19T01:23:05;24.60;60.40
44517;DHT22;30223;17.182;-96.766;2023-10-19T01:25:56;24.60;60.50
44517;DHT22;30223;17.182;-96.766;2023-10-19T01:28:34;24.60;60.20
44517;DHT22;30223;17.182;-96.766;2023-10-19T01:31:20;24.60;60.50
44517;DHT22;30223;17.182;-96.766;2023-10-19T01:33:57;24.60;59.10
44517;DHT22;30223;17.182;-96.766;2023-10-19T01:36:25;24.50;58.30
44517;DHT22;30223;17.182;-96.766;2023-10-19T01:38:56;24.50;58.30
44517;DHT22;30223;17.182;-96.766;2023-10-19T01:41:27;24.50;58.50
44517;DHT22;30223;17.182;-96.766;2023-10-19T01:43:56;24.50;58.90
44517;DHT22;30223;17.182;-96.766;2023-10-19T01:46:30;24.50;59.40
44517;DHT22;30223;17.182;-96.766;2023-10-19T01:49:00;24.50;59.60
44517;DHT22;30223;17.182;-96.766;2023-10-19T01:51:32;24.50;59.50
44517;DHT22;30223;17.182;-96.766;2023-10-19T01:53:59;24.50;59.60
44517;DHT22;30223;17.182;-96.766;2023-10-19T01:56:29;24.50;59.80
44517;DHT22;30223;17.182;-96.766;2023-10-19T01:58:56;24.50;59.90
44517;DHT22;30223;17.182;-96.766;2023-10-19T02:01:27;24.50;60.00
44517;DHT22;30223;17.182;-96.766;2023-10-19T02:04:00;24.50;60.60
44517;DHT22;30223;17.182;-96.766;2023-10-19T02:06:32;24.50;60.00
44517;DHT22;30223;17.182;-96.766;2023-10-19T02:09:11;24.50;60.10
44517;DHT22;30223;17.182;-96.766;2023-10-19T02:11:45;24.50;60.10
44517;DHT22;30223;17.182;-96.766;2023-10-19T02:14:13;24.50;60.10
44517;DHT22;30223;17.182;-96.766;2023-10-19T02:16:49;24.50;60.20
44517;DHT22;30223;17.182;-96.766;2023-10-19T02:19:20;24.50;60.20
44517;DHT22;30223;17.182;-96.766;2023-10-19T02:22:01;24.50;60.20
44517;DHT22;30223;17.182;-96.766;2023-10-19T02:24:34;24.50;60.30
44517;DHT22;30223;17.182;-96.766;2023-10-19T02:27:01;24.50;60.30
44517;DHT22;30223;17.182;-96.766;2023-10-19T02:29:27;24.50;60.40
44517;DHT22;30223;17.182;-96.766;2023-10-19T02:31:54;24.40;60.30
44517;DHT22;30223;17.182;-96.766;2023-10-19T02:34:22;24.40;60.40
44517;DHT22;30223;17.182;-96.766;2023-10-19T02:36:49;24.40;60.40
44517;DHT22;30223;17.182;-96.766;2023-10-19T02:39:16;24.40;60.40
44517;DHT22;30223;17.182;-96.766;2023-10-19T02:41:47;24.40;60.50
44517;DHT22;30223;17.182;-96.766;2023-10-19T02:44:19;24.40;60.50
44517;DHT22;30223;17.182;-96.766;2023-10-19T02:46:50;24.30;60.50
44517;DHT22;30223;17.182;-96.766;2023-10-19T02:49:20;24.30;60.50
44517;DHT22;30223;17.182;-96.766;2023-10-19T02:51:49;24.40;60.60
44517;DHT22;30223;17.182;-96.766;2023-10-19T02:54:18;24.30;60.60
44517;DHT22;30223;17.182;-96.766;2023-10-19T02:56:47;24.40;60.70
44517;DHT22;30223;17.182;-96.766;2023-10-19T02:59:20;24.30;60.70
44517;DHT22;30223;17.182;-96.766;2023-10-19T03:01:51;24.30;60.70
44517;DHT22;30223;17.182;-96.766;2023-10-19T03:04:18;24.30;60.60
44517;DHT22;30223;17.182;-96.766;2023-10-19T03:06:46;24.30;60.50
44517;DHT22;30223;17.182;-96.766;2023-10-19T03:09:13;24.30;60.50
44517;DHT22;30223;17.182;-96.766;2023-10-19T03:11:50;24.30;60.40
44517;DHT22;30223;17.182;-96.766;2023-10-19T03:14:23;24.30;60.50
44517;DHT22;30223;17.182;-96.766;2023-10-19T03:16:52;24.30;60.60
44517;DHT22;30223;17.182;-96.766;2023-10-19T03:19:21;24.20;60.50
44517;DHT22;30223;17.182;-96.766;2023-10-19T03:21:48;24.30;60.60
44517;DHT22;30223;17.182;-96.766;2023-10-19T03:24:16;24.30;60.60
44517;DHT22;30223;17.182;-96.766;2023-10-19T03:27:10;24.30;60.60
44517;DHT22;30223;17.182;-96.766;2023-10-19T03:29:45;24.30;60.70
44517;DHT22;30223;17.182;-96.766;2023-10-19T03:32:13;24.20;60.60
44517;DHT22;30223;17.182;-96.766;2023-10-19T03:34:40;24.20;60.70
44517;DHT22;30223;17.182;-96.766;2023-10-19T03:37:12;24.20;60.70
44517;DHT22;30223;17.182;-96.766;2023-10-19T03:39:41;24.20;60.70
44517;DHT22;30223;17.182;-96.766;2023-10-19T03:42:11;24.20;60.70
44517;DHT22;30223;17.182;-96.766;2023-10-19T03:44:40;24.20;60.70
44517;DHT22;30223;17.182;-96.766;2023-10-19T03:47:20;24.20;60.70
44517;DHT22;30223;17.182;-96.766;2023-10-19T03:49:51;24.20;60.80
44517;DHT22;30223;17.182;-96.766;2023-10-19T03:52:18;24.20;60.80
44517;DHT22;30223;17.182;-96.766;2023-10-19T03:54:44;24.20;60.80
44517;DHT22;30223;17.182;-96.766;2023-10-19T03:57:15;24.20;60.80
44517;DHT22;30223;17.182;-96.766;2023-10-19T03:59:46;24.20;60.80
44517;DHT22;30223;17.182;-96.766;2023-10-19T04:02:16;24.20;60.80
44517;DHT22;30223;17.182;-96.766;2023-10-19T04:04:47;24.20;61.00
44517;DHT22;30223;17.182;-96.766;2023-10-19T04:07:21;24.20;60.90
44517;DHT22;30223;17.182;-96.766;2023-10-19T04:09:53;24.20;61.60
44517;DHT22;30223;17.182;-96.766;2023-10-19T04:12:46;24.20;61.00
44517;DHT22;30223;17.182;-96.766;2023-10-19T04:15:13;24.20;61.00
44517;DHT22;30223;17.182;-96.766;2023-10-19T04:17:43;24.10;61.00
44517;DHT22;30223;17.182;-96.766;2023-10-19T04:20:14;24.10;61.00
44517;DHT22;30223;17.182;-96.766;2023-10-19T04:22:49;24.10;61.00
44517;DHT22;30223;17.182;-96.766;2023-10-19T04:25:20;24.10;61.00
44517;DHT22;30223;17.182;-96.766;2023-10-19T04:27:51;24.10;61.00
44517;DHT22;30223;17.182;-96.766;2023-10-19T04:30:19;24.10;61.00
44517;DHT22;30223;17.182;-96.766;2023-10-19T04:32:49;24.10;61.00
44517;DHT22;30223;17.182;-96.766;2023-10-19T04:35:17;24.10;61.10
44517;DHT22;30223;17.182;-96.766;2023-10-19T04:37:53;24.10;61.10
44517;DHT22;30223;17.182;-96.766;2023-10-19T04:40:21;24.10;61.10
44517;DHT22;30223;17.182;-96.766;2023-10-19T04:42:52;24.10;61.10
44517;DHT22;30223;17.182;-96.766;2023-10-19T04:45:19;24.00;61.00
44517;DHT22;30223;17.182;-96.766;2023-10-19T04:47:50;24.00;61.10
44517;DHT22;30223;17.182;-96.766;2023-10-19T04:50:19;24.00;61.10
44517;DHT22;30223;17.182;-96.766;2023-10-19T04:52:45;24.00;61.10
44517;DHT22;30223;17.182;-96.766;2023-10-19T04:55:12;24.00;61.10
44517;DHT22;30223;17.182;-96.766;2023-10-19T04:57:38;24.00;61.10
44517;DHT22;30223;17.182;-96.766;2023-10-19T05:00:06;24.00;61.10
44517;DHT22;30223;17.182;-96.766;2023-10-19T05:02:34;24.00;61.10
44517;DHT22;30223;17.182;-96.766;2023-10-19T05:05:01;23.90;61.10
44517;DHT22;30223;17.182;-96.766;2023-10-19T05:07:27;23.90;61.10
44517;DHT22;30223;17.182;-96.766;2023-10-19T05:09:55;24.00;61.20
44517;DHT22;30223;17.182;-96.766;2023-10-19T05:12:22;23.90;61.10
44517;DHT22;30223;17.182;-96.766;2023-10-19T05:14:48;23.90;61.10
44517;DHT22;30223;17.182;-96.766;2023-10-19T05:17:15;23.90;61.10
44517;DHT22;30223;17.182;-96.766;2023-10-19T05:19:42;23.90;61.10
44517;DHT22;30223;17.182;-96.766;2023-10-19T05:22:09;23.90;61.10
44517;DHT22;30223;17.182;-96.766;2023-10-19T05:24:36;23.90;61.10
44517;DHT22;30223;17.182;-96.766;2023-10-19T05:27:03;23.90;61.10
44517;DHT22;30223;17.182;-96.766;2023-10-19T05:29:32;23.90;61.10
44517;DHT22;30223;17.182;-96.766;2023-10-19T05:31:59;23.90;61.20
44517;DHT22;30223;17.182;-96.766;2023-10-19T05:34:26;23.90;61.10
44517;DHT22;30223;17.182;-96.766;2023-10-19T05:36:55;23.90;61.10
44517;DHT22;30223;17.182;-96.766;2023-10-19T05:39:25;23.80;61.10
44517;DHT22;30223;17.182;-96.766;2023-10-19T05:41:57;23.80;61.10
44517;DHT22;30223;17.182;-96.766;2023-10-19T05:44:30;23.80;61.10
44517;DHT22;30223;17.182;-96.766;2023-10-19T05:46:57;23.80;61.30
44517;DHT22;30223;17.182;-96.766;2023-10-19T05:49:24;23.80;61.10
44517;DHT22;30223;17.182;-96.766;2023-10-19T05:51:51;23.80;61.10
44517;DHT22;30223;17.182;-96.766;2023-10-19T05:54:18;23.80;61.10
44517;DHT22;30223;17.182;-96.766;2023-10-19T05:56:45;23.80;61.20
44517;DHT22;30223;17.182;-96.766;2023-10-19T05:59:12;23.80;61.10
44517;DHT22;30223;17.182;-96.766;2023-10-19T06:01:39;23.80;61.10
44517;DHT22;30223;17.182;-96.766;2023-10-19T06:04:07;23.80;61.10
44517;DHT22;30223;17.182;-96.766;2023-10-19T06:06:34;23.80;61.10
44517;DHT22;30223;17.182;-96.766;2023-10-19T06:09:02;23.80;61.10
44517;DHT22;30223;17.182;-96.766;2023-10-19T06:11:30;23.80;61.00
44517;DHT22;30223;17.182;-96.766;2023-10-19T06:14:00;23.70;61.00
44517;DHT22;30223;17.182;-96.766;2023-10-19T06:16:27;23.70;61.00
44517;DHT22;30223;17.182;-96.766;2023-10-19T06:18:54;23.70;61.00
44517;DHT22;30223;17.182;-96.766;2023-10-19T06:21:21;23.80;62.90
44517;DHT22;30223;17.182;-96.766;2023-10-19T06:23:48;23.80;61.60
44517;DHT22;30223;17.182;-96.766;2023-10-19T06:26:16;23.80;61.50
44517;DHT22;30223;17.182;-96.766;2023-10-19T06:28:43;23.90;61.90
44517;DHT22;30223;17.182;-96.766;2023-10-19T06:31:10;23.90;61.70
44517;DHT22;30223;17.182;-96.766;2023-10-19T06:33:37;23.90;61.70
44517;DHT22;30223;17.182;-96.766;2023-10-19T06:36:07;23.90;61.70
44517;DHT22;30223;17.182;-96.766;2023-10-19T06:38:35;23.90;61.50
44517;DHT22;30223;17.182;-96.766;2023-10-19T06:41:13;23.90;61.50
44517;DHT22;30223;17.182;-96.766;2023-10-19T06:43:40;23.90;61.40
44517;DHT22;30223;17.182;-96.766;2023-10-19T06:46:08;23.90;61.30
44517;DHT22;30223;17.182;-96.766;2023-10-19T06:48:38;23.90;61.20
44517;DHT22;30223;17.182;-96.766;2023-10-19T06:51:04;23.80;61.10
44517;DHT22;30223;17.182;-96.766;2023-10-19T06:53:32;23.80;61.00
44517;DHT22;30223;17.182;-96.766;2023-10-19T06:55:59;23.80;60.90
44517;DHT22;30223;17.182;-96.766;2023-10-19T06:58:26;23.80;60.90
44517;DHT22;30223;17.182;-96.766;2023-10-19T07:00:53;23.80;60.90
44517;DHT22;30223;17.182;-96.766;2023-10-19T07:03:23;23.80;60.80
44517;DHT22;30223;17.182;-96.766;2023-10-19T07:05:51;23.70;60.80
44517;DHT22;30223;17.182;-96.766;2023-10-19T07:08:19;23.70;60.80
44517;DHT22;30223;17.182;-96.766;2023-10-19T07:10:47;23.70;60.80
44517;DHT22;30223;17.182;-96.766;2023-10-19T07:13:15;23.60;60.70
44517;DHT22;30223;17.182;-96.766;2023-10-19T07:15:45;23.60;60.70
44517;DHT22;30223;17.182;-96.766;2023-10-19T07:18:12;23.60;60.70
44517;DHT22;30223;17.182;-96.766;2023-10-19T07:20:40;23.60;60.70
44517;DHT22;30223;17.182;-96.766;2023-10-19T07:23:08;23.60;60.70
44517;DHT22;30223;17.182;-96.766;2023-10-19T07:25:48;23.60;60.70
44517;DHT22;30223;17.182;-96.766;2023-10-19T07:28:20;23.60;60.70
44517;DHT22;30223;17.182;-96.766;2023-10-19T07:30:48;23.50;60.60
44517;DHT22;30223;17.182;-96.766;2023-10-19T07:33:15;23.50;60.70
44517;DHT22;30223;17.182;-96.766;2023-10-19T07:35:46;23.60;60.70
44517;DHT22;30223;17.182;-96.766;2023-10-19T07:38:14;23.50;60.60
44517;DHT22;30223;17.182;-96.766;2023-10-19T07:40:41;23.50;60.70
44517;DHT22;30223;17.182;-96.766;2023-10-19T07:43:09;23.50;60.70
44517;DHT22;30223;17.182;-96.766;2023-10-19T07:45:36;23.50;60.70
44517;DHT22;30223;17.182;-96.766;2023-10-19T07:48:04;23.50;60.70
44517;DHT22;30223;17.182;-96.766;2023-10-19T07:50:37;23.40;60.70
44517;DHT22;30223;17.182;-96.766;2023-10-19T07:53:06;23.40;60.60
44517;DHT22;30223;17.182;-96.766;2023-10-19T07:55:35;23.40;60.60
44517;DHT22;30223;17.182;-96.766;2023-10-19T07:58:04;23.40;60.60
44517;DHT22;30223;17.182;-96.766;2023-10-19T08:00:32;23.40;60.60
44517;DHT22;30223;17.182;-96.766;2023-10-19T08:03:03;23.40;60.60
44517;DHT22;30223;17.182;-96.766;2023-10-19T08:05:30;23.40;60.70
44517;DHT22;30223;17.182;-96.766;2023-10-19T08:07:57;23.30;60.50
44517;DHT22;30223;17.182;-96.766;2023-10-19T08:10:26;23.30;60.60
44517;DHT22;30223;17.182;-96.766;2023-10-19T08:12:53;23.30;60.60
44517;DHT22;30223;17.182;-96.766;2023-10-19T08:15:21;23.30;60.50
44517;DHT22;30223;17.182;-96.766;2023-10-19T08:17:51;23.30;60.60
44517;DHT22;30223;17.182;-96.766;2023-10-19T08:20:21;23.30;60.60
44517;DHT22;30223;17.182;-96.766;2023-10-19T08:22:54;23.30;60.60
44517;DHT22;30223;17.182;-96.766;2023-10-19T08:25:24;23.30;60.60
44517;DHT22;30223;17.182;-96.766;2023-10-19T08:27:53;23.30;60.70
44517;DHT22;30223;17.182;-96.766;2023-10-19T08:30:23;23.20;60.60
44517;DHT22;30223;17.182;-96.766;2023-10-19T08:32:51;23.30;60.60
44517;DHT22;30223;17.182;-96.766;2023-10-19T08:35:19;23.20;60.60
44517;DHT22;30223;17.182;-96.766;2023-10-19T08:37:53;23.20;60.70
44517;DHT22;30223;17.182;-96.766;2023-10-19T08:40:20;23.20;60.70
44517;DHT22;30223;17.182;-96.766;2023-10-19T08:42:49;23.20;60.60
44517;DHT22;30223;17.182;-96.766;2023-10-19T08:45:16;23.20;60.70
44517;DHT22;30223;17.182;-96.766;2023-10-19T08:50:16;23.20;60.70
44517;DHT22;30223;17.182;-96.766;2023-10-19T08:52:43;23.20;60.70
44517;DHT22;30223;17.182;-96.766;2023-10-19T08:55:10;23.20;60.70
44517;DHT22;30223;17.182;-96.766;2023-10-19T08:57:39;23.10;60.70
44517;DHT22;30223;17.182;-96.766;2023-10-19T09:00:07;23.10;60.70
44517;DHT22;30223;17.182;-96.766;2023-10-19T09:02:34;23.10;60.70
44517;DHT22;30223;17.182;-96.766;2023-10-19T09:05:06;23.10;60.70
44517;DHT22;30223;17.182;-96.766;2023-10-19T09:07:34;23.10;60.70
44517;DHT22;30223;17.182;-96.766;2023-10-19T09:10:00;23.10;60.70
44517;DHT22;30223;17.182;-96.766;2023-10-19T09:12:29;23.10;60.70
44517;DHT22;30223;17.182;-96.766;2023-10-19T09:14:55;23.10;60.70
44517;DHT22;30223;17.182;-96.766;2023-10-19T09:17:28;23.10;60.70
44517;DHT22;30223;17.182;-96.766;2023-10-19T09:19:56;23.00;60.60
44517;DHT22;30223;17.182;-96.766;2023-10-19T09:22:25;23.00;60.70
44517;DHT22;30223;17.182;-96.766;2023-10-19T09:24:52;23.00;60.70
44517;DHT22;30223;17.182;-96.766;2023-10-19T09:27:21;23.00;60.70
44517;DHT22;30223;17.182;-96.766;2023-10-19T09:29:49;23.00;60.70
44517;DHT22;30223;17.182;-96.766;2023-10-19T09:32:18;23.00;60.60
44517;DHT22;30223;17.182;-96.766;2023-10-19T09:34:45;23.00;60.70
44517;DHT22;30223;17.182;-96.766;2023-10-19T09:37:16;23.00;60.60
44517;DHT22;30223;17.182;-96.766;2023-10-19T09:39:43;23.00;60.60
44517;DHT22;30223;17.182;-96.766;2023-10-19T09:42:11;23.00;60.60
44517;DHT22;30223;17.182;-96.766;2023-10-19T09:44:51;23.00;60.60
44517;DHT22;30223;17.182;-96.766;2023-10-19T09:47:37;22.90;60.50
44517;DHT22;30223;17.182;-96.766;2023-10-19T09:50:05;22.90;60.60
44517;DHT22;30223;17.182;-96.766;2023-10-19T09:52:36;22.90;60.50
44517;DHT22;30223;17.182;-96.766;2023-10-19T09:55:32;22.90;60.60
44517;DHT22;30223;17.182;-96.766;2023-10-19T09:58:05;22.90;60.50
44517;DHT22;30223;17.182;-96.766;2023-10-19T10:00:34;22.90;60.50
44517;DHT22;30223;17.182;-96.766;2023-10-19T10:03:01;22.90;60.50
44517;DHT22;30223;17.182;-96.766;2023-10-19T10:10:52;22.80;60.40
44517;DHT22;30223;17.182;-96.766;2023-10-19T10:15:55;22.80;60.40
44517;DHT22;30223;17.182;-96.766;2023-10-19T10:18:25;22.80;60.40
44517;DHT22;30223;17.182;-96.766;2023-10-19T10:21:11;22.80;60.40
44517;DHT22;30223;17.182;-96.766;2023-10-19T10:23:43;22.80;60.40
44517;DHT22;30223;17.182;-96.766;2023-10-19T10:26:11;22.80;60.30
44517;DHT22;30223;17.182;-96.766;2023-10-19T10:28:39;22.80;60.30
44517;DHT22;30223;17.182;-96.766;2023-10-19T10:31:13;22.80;60.30
44517;DHT22;30223;17.182;-96.766;2023-10-19T10:33:51;22.70;60.20
44517;DHT22;30223;17.182;-96.766;2023-10-19T10:36:20;22.70;60.10
44517;DHT22;30223;17.182;-96.766;2023-10-19T10:38:49;22.70;60.20
44517;DHT22;30223;17.182;-96.766;2023-10-19T10:41:23;22.70;60.20
44517;DHT22;30223;17.182;-96.766;2023-10-19T10:43:57;22.70;60.10
44517;DHT22;30223;17.182;-96.766;2023-10-19T10:46:25;22.60;60.00
44517;DHT22;30223;17.182;-96.766;2023-10-19T10:48:53;22.60;60.00
44517;DHT22;30223;17.182;-96.766;2023-10-19T10:51:22;22.60;60.00
44517;DHT22;30223;17.182;-96.766;2023-10-19T10:53:53;22.60;59.90
44517;DHT22;30223;17.182;-96.766;2023-10-19T10:56:22;22.60;59.90
44517;DHT22;30223;17.182;-96.766;2023-10-19T10:58:49;22.60;59.90
44517;DHT22;30223;17.182;-96.766;2023-10-19T11:01:31;22.60;59.90
44517;DHT22;30223;17.182;-96.766;2023-10-19T11:04:10;22.60;59.90
44517;DHT22;30223;17.182;-96.766;2023-10-19T11:06:53;22.50;59.90
44517;DHT22;30223;17.182;-96.766;2023-10-19T11:09:22;22.50;59.90
44517;DHT22;30223;17.182;-96.766;2023-10-19T11:11:50;22.60;59.90
44517;DHT22;30223;17.182;-96.766;2023-10-19T11:14:18;22.50;59.90
44517;DHT22;30223;17.182;-96.766;2023-10-19T11:16:44;22.50;59.80
44517;DHT22;30223;17.182;-96.766;2023-10-19T11:19:12;22.50;59.80
44517;DHT22;30223;17.182;-96.766;2023-10-19T11:21:38;22.50;59.80
44517;DHT22;30223;17.182;-96.766;2023-10-19T11:24:25;22.50;59.80
44517;DHT22;30223;17.182;-96.766;2023-10-19T11:26:52;22.50;59.80
44517;DHT22;30223;17.182;-96.766;2023-10-19T11:29:18;22.50;59.70
44517;DHT22;30223;17.182;-96.766;2023-10-19T11:31:57;22.50;59.70
44517;DHT22;30223;17.182;-96.766;2023-10-19T11:34:25;22.50;59.70
44517;DHT22;30223;17.182;-96.766;2023-10-19T11:36:53;22.40;59.70
44517;DHT22;30223;17.182;-96.766;2023-10-19T11:39:26;22.50;59.70
44517;DHT22;30223;17.182;-96.766;2023-10-19T11:41:53;22.40;59.70
44517;DHT22;30223;17.182;-96.766;2023-10-19T11:44:19;22.40;59.70
44517;DHT22;30223;17.182;-96.766;2023-10-19T11:46:46;22.40;59.70
44517;DHT22;30223;17.182;-96.766;2023-10-19T11:49:12;22.40;59.70
44517;DHT22;30223;17.182;-96.766;2023-10-19T11:51:39;22.40;59.70
44517;DHT22;30223;17.182;-96.766;2023-10-19T11:54:05;22.40;59.70
44517;DHT22;30223;17.182;-96.766;2023-10-19T11:56:32;22.40;59.70
44517;DHT22;30223;17.182;-96.766;2023-10-19T11:58:59;22.40;59.60
44517;DHT22;30223;17.182;-96.766;2023-10-19T12:01:25;22.40;59.60
44517;DHT22;30223;17.182;-96.766;2023-10-19T12:03:52;22.40;59.60
44517;DHT22;30223;17.182;-96.766;2023-10-19T12:06:19;22.30;59.60
44517;DHT22;30223;17.182;-96.766;2023-10-19T12:08:46;22.40;59.60
44517;DHT22;30223;17.182;-96.766;2023-10-19T12:11:13;22.30;59.60
44517;DHT22;30223;17.182;-96.766;2023-10-19T12:13:43;22.30;59.50
44517;DHT22;30223;17.182;-96.766;2023-10-19T12:16:13;22.30;59.50
44517;DHT22;30223;17.182;-96.766;2023-10-19T12:18:42;22.30;59.50
44517;DHT22;30223;17.182;-96.766;2023-10-19T12:21:09;22.30;59.50
44517;DHT22;30223;17.182;-96.766;2023-10-19T12:23:42;22.30;59.50
44517;DHT22;30223;17.182;-96.766;2023-10-19T12:26:17;22.30;59.50
44517;DHT22;30223;17.182;-96.766;2023-10-19T12:28:43;22.20;59.50
44517;DHT22;30223;17.182;-96.766;2023-10-19T12:31:12;22.20;59.50
44517;DHT22;30223;17.182;-96.766;2023-10-19T12:33:41;22.20;59.50
44517;DHT22;30223;17.182;-96.766;2023-10-19T12:36:07;22.20;59.50
44517;DHT22;30223;17.182;-96.766;2023-10-19T12:38:53;22.20;59.40
44517;DHT22;30223;17.182;-96.766;2023-10-19T12:41:21;22.20;59.40
44517;DHT22;30223;17.182;-96.766;2023-10-19T12:43:48;22.20;59.40
44517;DHT22;30223;17.182;-96.766;2023-10-19T12:46:18;22.20;59.40
44517;DHT22;30223;17.182;-96.766;2023-10-19T12:48:45;22.10;59.40
44517;DHT22;30223;17.182;-96.766;2023-10-19T12:51:14;22.10;59.40
44517;DHT22;30223;17.182;-96.766;2023-10-19T12:53:41;22.10;59.40
44517;DHT22;30223;17.182;-96.766;2023-10-19T12:56:08;22.10;59.40
44517;DHT22;30223;17.182;-96.766;2023-10-19T12:58:37;22.10;59.40
44517;DHT22;30223;17.182;-96.766;2023-10-19T13:01:04;22.10;59.50
44517;DHT22;30223;17.182;-96.766;2023-10-19T13:03:31;22.00;59.40
44517;DHT22;30223;17.182;-96.766;2023-10-19T13:05:58;22.00;59.40
44517;DHT22;30223;17.182;-96.766;2023-10-19T13:08:27;22.00;59.40
44517;DHT22;30223;17.182;-96.766;2023-10-19T13:10:54;22.00;59.40
44517;DHT22;30223;17.182;-96.766;2023-10-19T13:13:21;22.00;59.40
44517;DHT22;30223;17.182;-96.766;2023-10-19T13:15:50;22.00;59.40
44517;DHT22;30223;17.182;-96.766;2023-10-19T13:18:17;22.00;59.50
44517;DHT22;30223;17.182;-96.766;2023-10-19T13:20:48;22.00;59.50
44517;DHT22;30223;17.182;-96.766;2023-10-19T13:23:15;21.90;59.50
44517;DHT22;30223;17.182;-96.766;2023-10-19T13:26:00;21.90;59.50
44517;DHT22;30223;17.182;-96.766;2023-10-19T13:28:47;21.90;59.50
44517;DHT22;30223;17.182;-96.766;2023-10-19T13:31:14;21.90;59.60
44517;DHT22;30223;17.182;-96.766;2023-10-19T13:33:41;21.90;59.70
44517;DHT22;30223;17.182;-96.766;2023-10-19T13:36:09;21.90;59.70
44517;DHT22;30223;17.182;-96.766;2023-10-19T13:38:36;21.90;59.80
44517;DHT22;30223;17.182;-96.766;2023-10-19T13:41:06;21.90;59.80
44517;DHT22;30223;17.182;-96.766;2023-10-19T13:43:40;21.90;59.80
44517;DHT22;30223;17.182;-96.766;2023-10-19T13:46:08;21.90;59.90
44517;DHT22;30223;17.182;-96.766;2023-10-19T13:48:35;21.90;59.90
44517;DHT22;30223;17.182;-96.766;2023-10-19T13:51:03;21.90;60.00
44517;DHT22;30223;17.182;-96.766;2023-10-19T13:53:48;21.80;60.00
44517;DHT22;30223;17.182;-96.766;2023-10-19T13:56:16;21.90;60.10
44517;DHT22;30223;17.182;-96.766;2023-10-19T13:58:42;21.90;60.20
44517;DHT22;30223;17.182;-96.766;2023-10-19T14:01:12;21.80;60.20
44517;DHT22;30223;17.182;-96.766;2023-10-19T14:03:39;21.80;60.20
44517;DHT22;30223;17.182;-96.766;2023-10-19T14:06:11;21.90;60.40
44517;DHT22;30223;17.182;-96.766;2023-10-19T14:08:38;21.90;60.50
44517;DHT22;30223;17.182;-96.766;2023-10-19T14:11:05;21.90;60.60
44517;DHT22;30223;17.182;-96.766;2023-10-19T14:13:33;21.80;60.50
44517;DHT22;30223;17.182;-96.766;2023-10-19T14:15:59;21.90;60.70
44517;DHT22;30223;17.182;-96.766;2023-10-19T14:18:26;21.80;60.80
44517;DHT22;30223;17.182;-96.766;2023-10-19T14:20:53;21.80;60.90
44517;DHT22;30223;17.182;-96.766;2023-10-19T14:23:19;21.90;60.90
44517;DHT22;30223;17.182;-96.766;2023-10-19T14:25:46;21.90;61.00
44517;DHT22;30223;17.182;-96.766;2023-10-19T14:28:12;21.90;61.10
44517;DHT22;30223;17.182;-96.766;2023-10-19T14:30:39;21.90;61.20
44517;DHT22;30223;17.182;-96.766;2023-10-19T14:33:09;21.90;61.20
44517;DHT22;30223;17.182;-96.766;2023-10-19T14:35:37;21.90;61.30
44517;DHT22;30223;17.182;-96.766;2023-10-19T14:38:08;21.90;61.40
44517;DHT22;30223;17.182;-96.766;2023-10-19T14:40:35;21.90;61.40
44517;DHT22;30223;17.182;-96.766;2023-10-19T14:43:02;21.90;61.60
44517;DHT22;30223;17.182;-96.766;2023-10-19T14:45:29;21.90;61.60
44517;DHT22;30223;17.182;-96.766;2023-10-19T14:47:57;21.90;61.60
44517;DHT22;30223;17.182;-96.766;2023-10-19T14:50:25;21.90;61.60
44517;DHT22;30223;17.182;-96.766;2023-10-19T14:52:53;22.00;61.70
44517;DHT22;30223;17.182;-96.766;2023-10-19T14:55:23;22.00;61.70
44517;DHT22;30223;17.182;-96.766;2023-10-19T14:57:51;21.90;61.70
44517;DHT22;30223;17.182;-96.766;2023-10-19T15:00:25;22.00;62.40
44517;DHT22;30223;17.182;-96.766;2023-10-19T15:02:57;22.00;61.80
44517;DHT22;30223;17.182;-96.766;2023-10-19T15:05:27;22.00;61.80
44517;DHT22;30223;17.182;-96.766;2023-10-19T15:07:54;22.00;61.90
44517;DHT22;30223;17.182;-96.766;2023-10-19T15:10:27;22.00;61.90
44517;DHT22;30223;17.182;-96.766;2023-10-19T15:12:57;22.00;61.90
44517;DHT22;30223;17.182;-96.766;2023-10-19T15:15:28;22.00;61.90
44517;DHT22;30223;17.182;-96.766;2023-10-19T15:17:55;22.00;61.90
44517;DHT22;30223;17.182;-96.766;2023-10-19T15:20:26;22.10;62.00
44517;DHT22;30223;17.182;-96.766;2023-10-19T15:22:53;22.10;61.90
44517;DHT22;30223;17.182;-96.766;2023-10-19T15:25:23;22.10;61.90
44517;DHT22;30223;17.182;-96.766;2023-10-19T15:27:53;22.10;61.90
44517;DHT22;30223;17.182;-96.766;2023-10-19T15:30:20;22.10;62.00